Time;durP1;ratioP1;P1;durP2;ratioP2;P2;SDS_P1;SDS_P2;PMS_P1;PMS_P2;Temp;Humidity;BMP_temperature;BMP_pressure;BME280_temperature;BME280_humidity;BME280_pressure;Samples;Min_cycle;Max_cycle;Signal;HPM_P1;HPM_P2
2023/08/13 04:16:12;;;;;;;8.02;4.40;;;20.70;99.90;;;;;;5533299;23;20530;-68
2023/08/13 04:18:37;;;;;;;8.25;4.25;;;20.70;99.90;;;;;;4957285;29;20042;-68
2023/08/13 04:21:03;;;;;;;6.43;4.60;;;20.70;99.90;;;;;;4958750;29;20502;-68
2023/08/13 04:23:28;;;;;;;5.57;4.00;;;20.70;99.90;;;;;;4958746;29;20031;-67
2023/08/13 04:25:54;;;;;;;5.78;4.57;;;20.80;99.90;;;;;;4957062;28;20023;-67
2023/08/13 04:28:19;;;;;;;6.80;4.30;;;20.80;99.90;;;;;;4958227;29;20060;-67
2023/08/13 04:30:45;;;;;;;7.45;4.50;;;20.80;99.90;;;;;;4961199;29;20496;-67
2023/08/13 04:33:10;;;;;;;6.20;4.03;;;20.70;99.90;;;;;;4958747;29;20039;-68
2023/08/13 04:35:36;;;;;;;7.20;4.80;;;20.70;99.90;;;;;;4958341;28;20046;-67
2023/08/13 04:38:01;;;;;;;7.53;4.25;;;20.50;99.90;;;;;;4957993;29;20058;-67
2023/08/13 04:40:27;;;;;;;7.50;4.45;;;20.50;99.90;;;;;;4956743;29;20086;-66
2023/08/13 04:42:53;;;;;;;10.05;4.90;;;20.50;99.90;;;;;;4956790;29;20023;-68
2023/08/13 04:45:18;;;;;;;6.20;4.40;;;20.40;99.90;;;;;;4957942;28;20440;-67
2023/08/13 04:47:44;;;;;;;9.73;4.05;;;20.50;99.90;;;;;;4957784;29;20027;-67
2023/08/13 04:50:10;;;;;;;8.48;4.70;;;20.70;99.90;;;;;;4956551;29;20059;-67
2023/08/13 04:52:36;;;;;;;8.63;4.05;;;20.60;99.90;;;;;;4959137;29;20027;-67
2023/08/13 04:55:02;;;;;;;6.97;4.40;;;20.80;99.90;;;;;;4958435;29;20066;-68
2023/08/13 04:57:28;;;;;;;10.57;4.28;;;20.70;99.90;;;;;;4956490;28;20595;-67
2023/08/13 04:59:53;;;;;;;8.05;4.63;;;20.50;99.90;;;;;;4956669;29;20035;-66
2023/08/13 05:02:19;;;;;;;7.47;5.13;;;20.60;99.90;;;;;;4958234;29;20472;-67
2023/08/13 05:04:44;;;;;;;10.48;4.53;;;20.50;99.90;;;;;;4957853;29;20035;-67
2023/08/13 05:07:10;;;;;;;9.98;4.90;;;20.60;99.90;;;;;;4957631;28;20042;-68
2023/08/13 05:09:35;;;;;;;13.10;4.82;;;20.60;99.90;;;;;;4957073;29;20114;-68
2023/08/13 05:12:01;;;;;;;7.45;4.40;;;20.90;99.90;;;;;;4956922;28;20107;-68
2023/08/13 05:14:27;;;;;;;9.75;5.00;;;21.00;99.90;;;;;;4957552;29;20126;-68
2023/08/13 05:16:55;;;;;;;6.25;4.40;;;21.10;99.90;;;;;;4957441;28;20031;-67
2023/08/13 05:19:21;;;;;;;5.93;4.47;;;21.20;99.90;;;;;;4957368;29;20023;-67
2023/08/13 05:21:46;;;;;;;5.30;4.00;;;21.20;99.90;;;;;;4955973;29;20050;-67
2023/08/13 05:24:12;;;;;;;6.30;4.32;;;21.10;99.90;;;;;;4957398;29;20027;-67
2023/08/13 05:26:38;;;;;;;7.75;4.40;;;21.00;99.90;;;;;;4960081;28;20433;-68
2023/08/13 05:29:03;;;;;;;5.75;3.92;;;20.90;99.90;;;;;;4958488;29;20098;-67
2023/08/13 05:31:30;;;;;;;5.15;4.10;;;21.20;99.90;;;;;;4957568;29;20030;-67
2023/08/13 05:33:58;;;;;;;6.75;4.07;;;21.10;99.90;;;;;;4955851;28;20410;-67
2023/08/13 05:36:25;;;;;;;6.63;4.00;;;21.20;99.90;;;;;;4957064;28;20050;-67
2023/08/13 05:38:50;;;;;;;8.05;4.53;;;21.40;99.90;;;;;;4956870;29;20038;-66
2023/08/13 05:41:16;;;;;;;4.13;3.70;;;21.50;99.90;;;;;;4957331;29;20019;-66
2023/08/13 05:43:41;;;;;;;6.40;4.00;;;21.40;99.90;;;;;;4956994;29;20039;-66
2023/08/13 05:46:07;;;;;;;6.15;3.63;;;21.30;99.90;;;;;;4956966;28;20097;-66
2023/08/13 05:48:33;;;;;;;5.82;4.15;;;21.40;99.90;;;;;;4957266;29;20110;-66
2023/08/13 05:50:58;;;;;;;4.88;3.78;;;21.40;99.90;;;;;;4956797;29;20062;-67
2023/08/13 05:53:24;;;;;;;7.95;3.70;;;21.50;99.90;;;;;;4957903;29;20027;-67
2023/08/13 05:55:53;;;;;;;7.45;3.95;;;21.70;99.90;;;;;;4956828;28;20431;-66
2023/08/13 05:58:19;;;;;;;7.25;3.92;;;21.70;99.90;;;;;;4956829;29;20507;-66
2023/08/13 06:00:44;;;;;;;5.82;3.95;;;21.70;99.90;;;;;;4957476;29;20031;-67
2023/08/13 06:03:10;;;;;;;8.48;4.00;;;21.50;99.90;;;;;;4955261;29;20403;-67
2023/08/13 06:05:38;;;;;;;6.70;4.00;;;21.40;99.90;;;;;;4956729;28;20027;-68
2023/08/13 06:08:04;;;;;;;5.47;4.43;;;21.40;99.90;;;;;;4956709;29;20031;-67
2023/08/13 06:10:30;;;;;;;8.48;4.53;;;21.60;99.90;;;;;;4956939;29;20027;-67
2023/08/13 06:12:55;;;;;;;7.13;4.03;;;21.70;99.90;;;;;;4957303;29;20062;-68
2023/08/13 06:15:21;;;;;;;10.13;3.38;;;21.80;99.90;;;;;;4956243;28;20023;-67
2023/08/13 06:17:48;;;;;;;5.88;3.95;;;22.00;99.90;;;;;;4955204;29;20032;-67
2023/08/13 06:20:15;;;;;;;5.95;4.18;;;21.80;99.90;;;;;;4956252;29;20387;-68
2023/08/13 06:22:41;;;;;;;4.28;3.75;;;21.80;99.90;;;;;;4957233;29;20058;-67
2023/08/13 06:25:06;;;;;;;7.05;4.00;;;21.90;99.90;;;;;;4958185;28;20027;-67
2023/08/13 06:27:32;;;;;;;4.35;3.80;;;21.80;99.90;;;;;;4957112;28;20035;-66
2023/08/13 06:29:57;;;;;;;;;;;21.90;99.90;;;;;;4958179;29;20042;-66
2023/08/13 06:32:23;;;;;;;6.32;3.60;;;22.00;99.90;;;;;;4957031;29;19914;-67
2023/08/13 06:34:48;;;;;;;4.97;3.22;;;22.20;99.90;;;;;;4956195;29;20395;-67
2023/08/13 06:37:14;;;;;;;5.22;3.33;;;22.40;99.90;;;;;;4955923;28;20031;-66
2023/08/13 06:39:39;;;;;;;5.00;3.50;;;22.40;99.90;;;;;;4955974;29;20027;-66
2023/08/13 06:42:05;;;;;;;15.13;3.53;;;22.60;99.90;;;;;;4956406;29;20038;-67
2023/08/13 06:44:30;;;;;;;5.22;3.47;;;22.70;99.90;;;;;;4954769;29;20428;-67
2023/08/13 06:46:56;;;;;;;;;;;22.80;99.90;;;;;;4956018;28;20318;-65
2023/08/13 06:49:21;;;;;;;7.93;3.53;;;23.00;99.90;;;;;;4955384;29;19911;-67
2023/08/13 06:51:47;;;;;;;;;;;23.10;99.90;;;;;;4956671;29;20066;-66
2023/08/13 06:54:13;;;;;;;6.25;3.28;;;23.20;99.90;;;;;;4954560;29;19938;-67
2023/08/13 06:56:38;;;;;;;;;;;23.30;99.90;;;;;;4956158;28;20395;-66
2023/08/13 06:59:04;;;;;;;6.20;2.97;;;23.50;99.90;;;;;;4954375;29;19906;-66
2023/08/13 07:01:30;;;;;;;;;;;23.60;99.90;;;;;;4936618;29;20544;-67
2023/08/13 07:03:56;;;;;;;4.95;3.10;;;23.70;99.90;;;;;;4936784;29;19907;-66
2023/08/13 07:06:22;;;;;;;4.13;2.50;;;23.80;99.90;;;;;;4934970;29;20027;-66
2023/08/13 07:08:48;;;;;;;;;;;23.80;99.90;;;;;;4936703;29;20384;-66
2023/08/13 07:11:13;;;;;;;6.10;3.05;;;23.50;99.90;;;;;;4934914;29;20344;-66
2023/08/13 07:13:39;;;;;;;;;;;23.60;99.90;;;;;;4936965;29;20024;-67
2023/08/13 07:16:04;;;;;;;4.88;2.53;;;23.70;99.90;;;;;;4934825;29;20021;-67
2023/08/13 07:18:30;;;;;;;;;;;23.80;99.90;;;;;;4935180;29;20042;-67
2023/08/13 07:20:55;;;;;;;6.72;3.25;;;24.00;99.90;;;;;;4936212;29;20377;-68
2023/08/13 07:23:21;;;;;;;;;;;24.20;99.90;;;;;;4938153;28;20389;-66
2023/08/13 07:25:46;;;;;;;4.72;2.95;;;24.30;99.90;;;;;;4946232;28;19914;-67
2023/08/13 07:28:12;;;;;;;;;;;24.40;99.90;;;;;;4936490;29;20032;-67
2023/08/13 07:30:37;;;;;;;4.60;3.03;;;24.50;99.90;;;;;;4936611;29;19913;-67
2023/08/13 07:33:03;;;;;;;;;;;24.70;99.90;;;;;;4951122;29;20035;-67
2023/08/13 07:35:29;;;;;;;7.88;2.90;;;24.90;99.90;;;;;;4950705;28;20327;-67
2023/08/13 07:37:54;;;;;;;;;;;24.90;99.90;;;;;;4936787;29;20493;-67
2023/08/13 07:40:20;;;;;;;6.47;2.90;;;25.00;99.90;;;;;;4945417;29;19910;-67
2023/08/13 07:42:45;;;;;;;;;;;25.10;99.90;;;;;;4951087;28;20105;-67
2023/08/13 07:45:11;;;;;;;6.15;2.30;;;25.10;99.90;;;;;;4957164;28;20005;-66
2023/08/13 07:47:37;;;;;;;;;;;25.30;99.90;;;;;;4960918;28;20027;-68
2023/08/13 07:50:04;;;;;;;3.40;2.00;;;25.40;99.90;;;;;;4965069;28;20002;-67
2023/08/13 07:52:31;;;;;;;3.13;1.80;;;25.60;99.90;;;;;;4967857;28;20034;-67
2023/08/13 07:54:57;;;;;;;2.83;1.80;;;25.60;99.90;;;;;;4973858;28;20137;-67
2023/08/13 07:57:24;;;;;;;;;;;25.60;99.90;;;;;;4975072;28;20110;-68
2023/08/13 07:59:49;;;;;;;4.13;2.50;;;25.50;99.90;;;;;;4973204;28;20286;-67
2023/08/13 08:02:15;;;;;;;3.53;2.10;;;25.80;99.90;;;;;;4974132;28;20023;-67
2023/08/13 08:04:40;;;;;;;3.63;1.85;;;26.00;99.90;;;;;;4976482;28;20027;-67
2023/08/13 08:07:06;;;;;;;2.95;1.67;;;26.00;99.90;;;;;;4960275;28;20098;-69
2023/08/13 08:09:31;;;;;;;3.33;2.10;;;26.10;99.90;;;;;;4945802;29;20055;-67
2023/08/13 08:11:57;;;;;;;3.65;2.00;;;26.30;99.90;;;;;;4955408;29;20027;-68
2023/08/13 08:14:22;;;;;;;4.97;2.15;;;26.20;99.90;;;;;;4956146;29;20058;-68
2023/08/13 08:16:48;;;;;;;3.65;1.98;;;26.40;99.90;;;;;;4954235;28;20549;-67
2023/08/13 08:19:13;;;;;;;5.22;1.90;;;26.50;99.90;;;;;;4956616;29;20154;-68
2023/08/13 08:21:39;;;;;;;3.22;2.00;;;26.50;99.90;;;;;;4955256;29;20046;-68
2023/08/13 08:24:05;;;;;;;5.78;2.22;;;26.50;99.90;;;;;;4956154;29;20059;-69
2023/08/13 08:26:31;;;;;;;3.13;1.55;;;26.80;99.90;;;;;;4953768;28;20038;-68
2023/08/13 08:28:57;;;;;;;4.03;1.50;;;27.30;99.90;;;;;;4955018;28;20030;-67
2023/08/13 08:31:23;;;;;;;2.53;1.70;;;28.10;99.90;;;;;;4955117;29;20106;-70
2023/08/13 08:33:49;;;;;;;3.78;1.70;;;29.60;99.90;;;;;;4956524;28;20031;-69
2023/08/13 08:36:14;;;;;;;3.00;1.90;;;29.20;99.90;;;;;;4956890;28;20090;-70
2023/08/13 08:38:40;;;;;;;3.83;1.73;;;29.50;99.90;;;;;;4957005;29;20039;-69
2023/08/13 08:41:06;;;;;;;4.97;2.28;;;29.90;99.90;;;;;;4956483;29;20098;-68
2023/08/13 08:43:35;;;;;;;4.13;1.80;;;30.00;99.90;;;;;;4956330;28;20023;-69
2023/08/13 08:46:02;;;;;;;4.60;1.80;;;29.60;99.90;;;;;;4954588;28;20515;-69
2023/08/13 08:48:29;;;;;;;2.95;1.83;;;28.30;99.90;;;;;;4958109;28;20037;-69
2023/08/13 08:50:56;;;;;;;2.83;1.88;;;28.60;99.90;;;;;;4959532;28;20027;-71
2023/08/13 08:53:21;;;;;;;3.08;2.03;;;30.80;99.90;;;;;;4958854;28;20072;-71
2023/08/13 08:55:48;;;;;;;3.30;1.75;;;33.50;98.50;;;;;;4960860;28;20023;-69
2023/08/13 08:58:14;;;;;;;3.80;1.75;;;35.70;95.10;;;;;;4958774;28;20035;-70
2023/08/13 09:00:40;;;;;;;5.28;1.80;;;36.20;92.90;;;;;;4958954;29;20023;-69
2023/08/13 09:03:06;;;;;;;3.30;1.70;;;35.30;92.50;;;;;;4957036;29;20034;-69
2023/08/13 09:05:33;;;;;;;3.00;1.50;;;34.20;93.20;;;;;;4958577;28;20026;-70
2023/08/13 09:07:58;;;;;;;3.17;1.90;;;32.90;94.10;;;;;;4958229;28;20031;-69
2023/08/13 09:10:24;;;;;;;3.60;1.95;;;33.20;93.60;;;;;;4956835;29;20037;-68
2023/08/13 09:12:52;;;;;;;2.92;1.73;;;33.90;93.20;;;;;;4958003;29;20023;-71
2023/08/13 09:15:18;;;;;;;3.50;1.80;;;34.80;92.30;;;;;;4957757;28;20019;-70
2023/08/13 09:17:43;;;;;;;4.45;1.80;;;35.10;91.60;;;;;;4957902;28;20027;-68
2023/08/13 09:20:19;;;;;;;2.97;1.40;;;34.60;92.10;;;;;;4957607;29;20035;-69
2023/08/13 09:22:47;;;;;;;3.13;1.80;;;34.50;91.80;;;;;;4957855;28;20388;-69
2023/08/13 09:25:17;;;;;;;5.65;1.60;;;34.60;91.70;;;;;;4956555;28;20023;-68
2023/08/13 09:27:44;;;;;;;3.47;1.55;;;34.80;91.40;;;;;;4957724;28;20035;-71
2023/08/13 09:30:27;;;;;;;3.92;1.50;;;33.70;91.80;;;;;;4961943;28;20031;-70
2023/08/13 09:32:55;;;;;;;2.38;1.52;;;33.20;92.10;;;;;;4961645;28;20037;-71
2023/08/13 09:35:20;;;;;;;2.22;1.70;;;32.10;93.10;;;;;;4962783;28;20035;-69
2023/08/13 09:37:46;;;;;;;3.90;1.70;;;31.50;93.80;;;;;;4965625;29;20428;-70
2023/08/13 09:40:12;;;;;;;4.60;1.50;;;31.20;94.50;;;;;;4966781;29;20406;-70
2023/08/13 09:42:39;;;;;;;3.95;1.85;;;31.70;94.50;;;;;;4960890;29;20032;-70
2023/08/13 09:45:07;;;;;;;2.65;1.55;;;32.50;93.50;;;;;;4960441;29;20020;-70
2023/08/13 09:47:36;;;;;;;2.28;1.50;;;32.90;93.20;;;;;;4957158;28;20027;-70
2023/08/13 09:50:02;;;;;;;2.75;1.73;;;32.90;93.30;;;;;;4957548;28;20027;-71
2023/08/13 09:52:30;;;;;;;4.25;1.88;;;33.00;93.20;;;;;;4957785;28;20074;-72
2023/08/13 09:55:11;;;;;;;3.38;1.60;;;32.90;92.90;;;;;;4956419;29;20031;-70
2023/08/13 09:57:38;;;;;;;2.53;1.45;;;32.90;92.80;;;;;;4957114;28;20034;-70
2023/08/13 10:00:09;;;;;;;3.80;1.58;;;32.20;92.90;;;;;;4956872;28;20078;-69
2023/08/13 10:02:37;;;;;;;5.03;1.77;;;31.20;93.70;;;;;;4957003;28;20042;-71
2023/08/13 10:05:03;;;;;;;2.70;1.58;;;30.80;94.70;;;;;;4957353;28;20023;-70
2023/08/13 10:07:30;;;;;;;5.82;1.60;;;30.80;94.60;;;;;;4957182;28;20110;-70
2023/08/13 10:09:57;;;;;;;4.18;1.70;;;29.50;95.60;;;;;;4956787;28;20028;-69
2023/08/13 10:12:23;;;;;;;10.13;2.15;;;29.60;96.40;;;;;;4956653;28;20039;-69
2023/08/13 10:14:49;;;;;;;4.28;2.00;;;29.50;96.10;;;;;;4955279;29;20050;-69
2023/08/13 10:17:19;;;;;;;3.53;1.50;;;29.30;96.20;;;;;;4959249;28;20477;-71
2023/08/13 10:19:49;;;;;;;4.32;2.35;;;28.30;97.20;;;;;;4955674;29;20019;-70
2023/08/13 10:22:33;;;;;;;4.20;1.75;;;28.20;98.00;;;;;;4956858;28;20027;-69
2023/08/13 10:24:59;;;;;;;2.45;1.73;;;28.30;98.10;;;;;;4956588;28;20019;-69
2023/08/13 10:27:28;;;;;;;3.58;1.83;;;28.30;97.50;;;;;;4956679;28;20086;-71
2023/08/13 10:30:10;;;;;;;2.25;1.60;;;28.30;98.10;;;;;;4983433;23;20447;-70
2023/08/13 10:32:51;;;;;;;3.08;1.70;;;28.60;98.10;;;;;;4956921;28;20070;-68
2023/08/13 10:35:21;;;;;;;3.13;1.58;;;28.50;98.20;;;;;;4956283;28;20031;-68
2023/08/13 10:37:52;;;;;;;2.60;1.77;;;28.30;98.20;;;;;;4956909;28;20024;-68
2023/08/13 10:40:19;;;;;;;4.10;2.20;;;28.30;98.10;;;;;;4954973;29;20484;-69
2023/08/13 10:42:48;;;;;;;2.63;1.50;;;28.10;98.30;;;;;;4956248;28;20367;-69
2023/08/13 10:45:16;;;;;;;3.50;1.95;;;28.00;98.50;;;;;;4956422;28;20027;-69
2023/08/13 10:47:56;;;;;;;3.67;1.85;;;27.90;99.00;;;;;;4956246;28;20035;-70
2023/08/13 10:50:30;;;;;;;2.10;1.73;;;27.80;99.10;;;;;;4956352;28;20036;-69
2023/08/13 10:53:08;;;;;;;6.10;1.75;;;27.70;98.90;;;;;;4956507;28;20107;-68
2023/08/13 10:55:37;;;;;;;2.97;1.63;;;27.50;99.00;;;;;;4957621;28;20472;-69
2023/08/13 10:58:04;;;;;;;3.88;1.48;;;27.40;99.10;;;;;;4961475;28;20027;-69
2023/08/13 11:00:29;;;;;;;4.60;1.60;;;27.30;99.00;;;;;;4955742;29;20078;-69
2023/08/13 11:03:14;;;;;;;4.07;1.70;;;27.30;99.20;;;;;;4956310;28;20015;-69
2023/08/13 11:05:39;;;;;;;3.55;1.63;;;27.30;99.30;;;;;;4956039;28;20023;-68
2023/08/13 11:08:07;;;;;;;3.67;1.30;;;27.20;99.30;;;;;;4956045;28;20074;-69
2023/08/13 11:10:33;;;;;;;6.53;1.60;;;27.10;99.30;;;;;;4953991;28;20031;-70
2023/08/13 11:13:00;;;;;;;3.35;1.40;;;27.00;99.20;;;;;;4954543;29;20038;-68
2023/08/13 11:15:28;;;;;;;2.53;1.83;;;27.00;99.60;;;;;;4955832;28;20078;-69
2023/08/13 11:17:53;;;;;;;5.22;1.92;;;27.00;99.90;;;;;;4956328;28;20031;-69
2023/08/13 11:20:19;;;;;;;3.58;1.80;;;27.00;99.90;;;;;;4956208;28;20303;-68
2023/08/13 11:22:46;;;;;;;5.38;1.65;;;27.00;99.90;;;;;;4956634;29;20059;-69
2023/08/13 11:25:13;;;;;;;3.72;1.90;;;26.90;99.90;;;;;;4958215;28;20030;-68
2023/08/13 11:27:39;;;;;;;3.22;1.73;;;27.20;99.90;;;;;;4954547;29;20027;-69
2023/08/13 11:30:07;;;;;;;4.53;1.63;;;27.40;99.90;;;;;;4955912;28;20126;-69
2023/08/13 11:32:35;;;;;;;3.97;1.83;;;27.60;99.90;;;;;;4955733;28;20070;-69
2023/08/13 11:35:00;;;;;;;3.67;1.85;;;27.80;99.60;;;;;;4954138;29;20039;-69
2023/08/13 11:37:26;;;;;;;3.17;1.83;;;28.30;98.60;;;;;;4956689;28;20542;-69
2023/08/13 11:39:52;;;;;;;2.92;1.27;;;28.50;98.30;;;;;;4956898;28;20480;-69
2023/08/13 11:42:17;;;;;;;3.28;1.17;;;28.80;98.00;;;;;;4955476;28;20031;-69
2023/08/13 11:44:48;;;;;;;3.63;1.75;;;29.00;97.70;;;;;;4954314;29;20465;-70
2023/08/13 11:47:24;;;;;;;7.05;3.58;;;29.10;97.60;;;;;;4954019;29;20031;-68
2023/08/13 11:49:49;;;;;;;4.03;2.73;;;29.10;97.60;;;;;;4956005;28;20051;-69
2023/08/13 11:52:18;;;;;;;1.98;1.67;;;29.10;97.60;;;;;;4956157;28;20392;-68
2023/08/13 11:54:44;;;;;;;3.95;2.00;;;29.20;97.70;;;;;;4954959;28;20035;-68
2023/08/13 11:57:10;;;;;;;3.92;2.05;;;29.20;97.60;;;;;;4955042;28;20023;-69
2023/08/13 11:59:36;;;;;;;3.25;1.63;;;29.40;97.50;;;;;;4955158;28;20096;-70
2023/08/13 12:02:01;;;;;;;5.15;1.30;;;29.50;97.10;;;;;;4955396;28;20105;-70
2023/08/13 12:04:31;;;;;;;3.00;1.40;;;29.00;96.90;;;;;;4955652;28;20031;-69
2023/08/13 12:06:57;;;;;;;4.25;1.63;;;28.50;97.40;;;;;;4954395;29;20384;-69
2023/08/13 12:09:22;;;;;;;2.15;1.58;;;28.30;98.30;;;;;;4955194;29;20024;-68
2023/08/13 12:11:48;;;;;;;3.78;1.60;;;28.30;98.50;;;;;;4955372;28;20023;-69
2023/08/13 12:14:13;;;;;;;4.25;2.40;;;28.20;98.10;;;;;;4955438;28;20497;-69
2023/08/13 12:16:39;;;;;;;4.95;1.90;;;27.90;99.10;;;;;;4955047;28;20024;-69
2023/08/13 12:19:06;;;;;;;3.30;1.65;;;27.90;99.10;;;;;;4955612;28;20038;-67
2023/08/13 12:21:32;;;;;;;3.20;1.55;;;28.10;99.10;;;;;;4950612;28;20020;-65
2023/08/13 12:23:58;;;;;;;6.47;1.70;;;28.20;99.20;;;;;;4952593;29;20023;-65
2023/08/13 12:26:23;;;;;;;2.25;1.60;;;28.20;98.90;;;;;;4958266;29;20484;-65
2023/08/13 12:28:50;;;;;;;3.65;1.52;;;28.00;99.00;;;;;;4957886;29;20035;-66
2023/08/13 12:31:18;;;;;;;3.22;1.75;;;27.90;98.90;;;;;;4956446;29;20035;-65
2023/08/13 12:33:44;;;;;;;3.92;1.48;;;27.90;98.70;;;;;;4958532;28;20387;-65
2023/08/13 12:36:09;;;;;;;2.45;1.30;;;27.70;98.20;;;;;;4956829;28;20043;-65
2023/08/13 12:38:36;;;;;;;1.75;1.15;;;27.70;99.10;;;;;;4958157;28;20106;-65
2023/08/13 12:41:02;;;;;;;2.55;1.42;;;27.90;98.90;;;;;;4958449;28;20027;-65
2023/08/13 12:43:27;;;;;;;2.97;1.20;;;28.00;98.40;;;;;;4958347;28;20026;-65
2023/08/13 12:45:53;;;;;;;1.70;1.20;;;27.90;98.30;;;;;;4958615;28;20027;-65
2023/08/13 12:48:18;;;;;;;2.22;1.63;;;27.80;98.70;;;;;;4958707;28;20050;-64
2023/08/13 12:50:44;;;;;;;2.00;1.20;;;27.70;98.60;;;;;;4958308;28;20042;-65
2023/08/13 12:53:09;;;;;;;3.08;1.70;;;27.70;98.90;;;;;;4958362;28;20477;-66
2023/08/13 12:55:35;;;;;;;4.50;1.50;;;27.70;98.80;;;;;;4958404;28;20106;-65
2023/08/13 12:58:00;;;;;;;3.00;1.30;;;27.70;99.10;;;;;;4959334;28;20027;-66
2023/08/13 13:00:26;;;;;;;2.67;1.30;;;27.80;98.30;;;;;;4958702;28;20023;-65
2023/08/13 13:02:51;;;;;;;3.35;1.55;;;27.80;98.80;;;;;;4958212;28;20061;-67
2023/08/13 13:05:17;;;;;;;2.53;1.90;;;27.90;99.50;;;;;;4958226;28;20028;-68
2023/08/13 13:07:43;;;;;;;4.25;2.83;;;28.10;98.90;;;;;;4958340;28;20399;-67
2023/08/13 13:10:08;;;;;;;3.22;1.75;;;28.10;98.40;;;;;;4957145;29;20038;-66
2023/08/13 13:12:34;;;;;;;3.47;1.60;;;28.00;98.80;;;;;;4957055;29;20023;-66
2023/08/13 13:14:59;;;;;;;1.90;1.15;;;27.90;98.50;;;;;;4956634;29;20033;-65
2023/08/13 13:17:27;;;;;;;2.30;1.30;;;27.80;98.40;;;;;;4958034;28;20055;-66
2023/08/13 13:19:54;;;;;;;4.28;1.50;;;27.60;98.60;;;;;;4957759;28;20027;-66
2023/08/13 13:22:20;;;;;;;1.33;0.98;;;27.80;98.80;;;;;;4958217;28;20028;-66
2023/08/13 13:24:45;;;;;;;2.80;1.30;;;27.80;98.30;;;;;;4957823;29;20078;-65
2023/08/13 13:27:11;;;;;;;2.63;2.00;;;27.90;98.20;;;;;;4958598;28;20062;-66
2023/08/13 13:29:36;;;;;;;3.70;1.38;;;28.10;98.00;;;;;;4958682;28;20138;-65
2023/08/13 13:32:02;;;;;;;2.97;1.20;;;28.00;97.80;;;;;;4957896;28;20093;-65
2023/08/13 13:34:27;;;;;;;4.13;1.63;;;28.10;97.70;;;;;;4957299;28;20023;-65
2023/08/13 13:36:53;;;;;;;1.73;1.20;;;28.20;97.80;;;;;;4956823;28;20098;-68
2023/08/13 13:39:18;;;;;;;4.57;1.80;;;28.20;98.20;;;;;;4955551;28;20046;-65
2023/08/13 13:41:44;;;;;;;2.85;1.20;;;28.10;98.50;;;;;;4955645;28;20054;-68
2023/08/13 13:44:09;;;;;;;2.08;1.35;;;27.90;98.10;;;;;;4955335;29;20388;-67
2023/08/13 13:46:35;;;;;;;2.35;1.10;;;27.90;98.10;;;;;;4955640;29;20023;-67
2023/08/13 13:49:00;;;;;;;1.75;1.10;;;28.20;97.50;;;;;;4955400;29;20039;-67
2023/08/13 13:51:26;;;;;;;2.15;1.45;;;28.60;97.30;;;;;;4955379;29;20039;-66
2023/08/13 13:53:51;;;;;;;3.08;1.55;;;28.90;96.60;;;;;;4955771;29;20086;-66
2023/08/13 13:56:17;;;;;;;2.42;1.30;;;29.00;96.40;;;;;;4957250;28;20051;-67
2023/08/13 13:58:42;;;;;;;3.35;1.27;;;29.10;96.40;;;;;;4956952;28;20468;-68
2023/08/13 14:01:08;;;;;;;2.90;1.65;;;29.00;96.20;;;;;;4955365;29;20031;-66
2023/08/13 14:03:33;;;;;;;3.08;1.52;;;29.10;96.30;;;;;;4957300;28;20061;-67
2023/08/13 14:05:59;;;;;;;2.17;1.33;;;29.00;96.10;;;;;;4956948;28;20102;-65
2023/08/13 14:08:25;;;;;;;3.13;1.50;;;28.80;96.00;;;;;;4957080;28;20066;-64
2023/08/13 14:10:50;;;;;;;1.75;1.60;;;28.40;96.30;;;;;;4956730;28;20027;-64
2023/08/13 14:13:16;;;;;;;2.40;1.15;;;28.30;96.50;;;;;;4956132;29;20510;-64
2023/08/13 14:15:44;;;;;;;2.25;1.10;;;28.10;97.10;;;;;;4956064;29;20034;-67
2023/08/13 14:18:10;;;;;;;1.27;1.05;;;28.00;97.40;;;;;;4957306;28;20106;-67
2023/08/13 14:20:35;;;;;;;2.10;1.05;;;27.90;97.70;;;;;;4956811;28;20082;-67
2023/08/13 14:23:01;;;;;;;2.45;1.55;;;27.90;97.70;;;;;;4956494;28;20031;-66
2023/08/13 14:25:26;;;;;;;2.78;1.27;;;28.00;97.80;;;;;;4956471;28;20019;-67
2023/08/13 14:27:52;;;;;;;1.85;1.20;;;28.10;97.30;;;;;;4956272;28;20038;-68
2023/08/13 14:30:17;;;;;;;3.05;1.13;;;28.30;96.80;;;;;;4955979;28;20043;-67
2023/08/13 14:32:43;;;;;;;3.13;1.10;;;28.20;96.90;;;;;;4946240;29;20035;-68
2023/08/13 14:35:09;;;;;;;7.95;4.20;;;28.30;97.90;;;;;;4937146;29;20151;-67
2023/08/13 14:37:34;;;;;;;2.17;1.25;;;28.30;98.10;;;;;;4936610;29;20119;-67
2023/08/13 14:40:00;;;;;;;5.13;1.30;;;28.50;97.90;;;;;;4937459;29;20035;-66
2023/08/13 14:42:26;;;;;;;2.90;1.27;;;28.60;96.10;;;;;;4938425;29;20024;-67
2023/08/13 14:44:51;;;;;;;3.08;1.15;;;28.50;96.40;;;;;;4936939;29;20103;-66
2023/08/13 14:47:17;;;;;;;1.77;1.33;;;28.20;96.20;;;;;;4937294;29;20027;-67
2023/08/13 14:49:43;;;;;;;2.25;1.27;;;28.30;96.90;;;;;;4936906;29;20489;-67
2023/08/13 14:52:10;;;;;;;2.15;1.40;;;28.40;96.90;;;;;;4935574;29;20558;-66
2023/08/13 14:54:35;;;;;;;2.15;1.40;;;28.60;96.40;;;;;;4935366;29;20039;-66
2023/08/13 14:57:01;;;;;;;2.20;1.10;;;28.70;96.60;;;;;;4937108;29;20031;-68
2023/08/13 14:59:26;;;;;;;5.90;1.88;;;28.90;96.50;;;;;;4936917;29;20036;-68
2023/08/13 15:01:52;;;;;;;2.00;1.05;;;29.00;96.00;;;;;;4937514;29;20059;-67
2023/08/13 15:04:17;;;;;;;1.75;1.15;;;29.00;95.70;;;;;;4936969;29;20015;-67
2023/08/13 15:06:43;;;;;;;1.67;1.15;;;28.90;95.70;;;;;;4936641;29;20027;-67
2023/08/13 15:09:08;;;;;;;3.90;1.67;;;28.80;96.00;;;;;;4936711;29;20027;-67
2023/08/13 15:11:34;;;;;;;2.22;1.38;;;28.90;96.00;;;;;;4936975;29;20028;-67
2023/08/13 15:14:01;;;;;;;2.20;1.40;;;28.70;96.30;;;;;;4937000;29;20114;-68
2023/08/13 15:16:26;;;;;;;3.70;1.40;;;28.50;96.40;;;;;;4935440;29;20036;-67
2023/08/13 15:18:52;;;;;;;1.52;1.20;;;28.30;96.70;;;;;;4934993;29;20051;-66
2023/08/13 15:21:17;;;;;;;2.35;1.30;;;28.10;97.50;;;;;;4935164;29;20020;-67
2023/08/13 15:23:43;;;;;;;12.07;8.43;;;28.00;97.10;;;;;;4935106;29;20374;-67
2023/08/13 15:26:08;;;;;;;2.15;1.48;;;27.80;97.50;;;;;;4934920;29;20020;-66
2023/08/13 15:28:35;;;;;;;2.97;1.50;;;27.50;98.00;;;;;;4936701;29;20429;-66
2023/08/13 15:31:01;;;;;;;2.75;1.35;;;27.40;98.20;;;;;;4935077;29;20048;-67
2023/08/13 15:33:27;;;;;;;3.22;1.63;;;27.40;98.50;;;;;;4936409;29;20078;-67
2023/08/13 15:35:54;;;;;;;1.98;1.50;;;27.40;98.70;;;;;;4936705;29;20027;-67
2023/08/13 15:38:21;;;;;;;1.92;1.50;;;27.50;98.90;;;;;;4936568;29;20032;-67
2023/08/13 15:40:47;;;;;;;2.67;1.58;;;27.50;99.00;;;;;;4936107;29;20102;-67
2023/08/13 15:43:12;;;;;;;3.17;1.63;;;27.50;98.70;;;;;;4935005;29;20110;-68
2023/08/13 15:45:38;;;;;;;2.00;1.17;;;27.70;98.50;;;;;;4936228;29;20020;-67
2023/08/13 15:48:04;;;;;;;8.82;5.75;;;27.50;98.30;;;;;;4936416;29;20028;-67
2023/08/13 15:50:30;;;;;;;4.50;3.08;;;27.40;98.50;;;;;;4935783;29;20059;-67
2023/08/13 15:52:56;;;;;;;2.10;1.52;;;27.30;98.80;;;;;;4936288;29;20050;-67
2023/08/13 15:55:21;;;;;;;6.53;1.33;;;27.40;98.80;;;;;;4934909;29;20489;-66
2023/08/13 15:57:48;;;;;;;2.28;1.45;;;27.30;99.10;;;;;;4939574;29;20034;-66
2023/08/13 16:00:15;;;;;;;2.08;1.30;;;27.20;99.40;;;;;;4940325;29;20050;-66
2023/08/13 16:02:41;;;;;;;2.58;1.52;;;27.10;99.60;;;;;;4940635;29;20507;-66
2023/08/13 16:05:07;;;;;;;3.35;1.60;;;27.20;99.50;;;;;;4939912;29;20024;-67
2023/08/13 16:07:33;;;;;;;3.72;1.75;;;27.30;99.40;;;;;;4938510;29;20059;-68
2023/08/13 16:09:58;;;;;;;2.55;1.23;;;27.10;99.30;;;;;;4938512;29;20122;-67
2023/08/13 16:12:24;;;;;;;3.25;1.63;;;27.20;99.60;;;;;;4939907;29;20098;-67
2023/08/13 16:14:49;;;;;;;2.45;1.27;;;27.10;99.90;;;;;;4940075;29;20079;-66
2023/08/13 16:17:15;;;;;;;3.20;1.52;;;26.90;99.90;;;;;;4939859;29;20054;-67
2023/08/13 16:19:40;;;;;;;1.80;1.40;;;27.00;99.80;;;;;;4939593;29;20103;-66
2023/08/13 16:22:06;;;;;;;2.03;1.35;;;26.90;99.90;;;;;;4939683;29;20024;-67
2023/08/13 16:24:31;;;;;;;1.98;1.10;;;27.00;99.90;;;;;;4945114;29;20039;-66
2023/08/13 16:26:57;;;;;;;2.60;1.30;;;26.90;99.60;;;;;;4944578;28;20086;-66
2023/08/13 16:29:24;;;;;;;2.58;1.25;;;27.00;99.90;;;;;;4950136;29;20038;-67
2023/08/13 16:31:50;;;;;;;3.20;1.65;;;26.90;99.90;;;;;;4958493;29;20027;-67
2023/08/13 16:34:15;;;;;;;3.60;1.30;;;26.90;99.90;;;;;;4958593;29;20035;-67
2023/08/13 16:36:41;;;;;;;3.15;1.35;;;26.80;99.90;;;;;;4958384;29;20031;-67
2023/08/13 16:39:08;;;;;;;3.53;1.52;;;26.90;99.90;;;;;;4958312;29;20031;-68
2023/08/13 16:41:33;;;;;;;3.55;1.83;;;26.90;99.90;;;;;;4958308;29;20030;-66
2023/08/13 16:43:59;;;;;;;2.92;1.30;;;26.80;99.90;;;;;;4958347;29;20032;-66
2023/08/13 16:46:24;;;;;;;3.40;2.40;;;26.70;99.90;;;;;;4958307;29;20027;-68
2023/08/13 16:48:50;;;;;;;3.95;2.08;;;26.70;99.90;;;;;;4958638;29;20054;-68
2023/08/13 16:51:25;;;;;;;3.67;1.70;;;26.70;99.90;;;;;;4958441;29;20034;-65
2023/08/13 16:53:52;;;;;;;3.85;1.70;;;26.60;99.90;;;;;;4958667;28;20044;-64
2023/08/13 16:56:17;;;;;;;2.72;1.48;;;26.60;99.90;;;;;;4958494;29;20024;-65
2023/08/13 16:58:43;;;;;;;2.58;1.50;;;26.70;99.90;;;;;;4958339;29;20436;-66
2023/08/13 17:01:08;;;;;;;2.50;1.50;;;26.60;99.90;;;;;;4958082;29;20165;-66